sensor_id;sensor_type;location;lat;lon;timestamp;pressure;altitude;pressure_sealevel;temperature;humidity
13690;BME280;6917;52.194;9.894;2022-08-25T00:00:58;100778.56;;;19.17;71.50
13690;BME280;6917;52.194;9.894;2022-08-25T00:03:24;100781.38;;;19.01;71.87
13690;BME280;6917;52.194;9.894;2022-08-25T00:05:49;100782.56;;;19.19;71.57
13690;BME280;6917;52.194;9.894;2022-08-25T00:08:15;100777.28;;;19.30;71.27
13690;BME280;6917;52.194;9.894;2022-08-25T00:10:41;100778.88;;;19.31;71.19
13690;BME280;6917;52.194;9.894;2022-08-25T00:13:07;100781.41;;;19.20;71.53
13690;BME280;6917;52.194;9.894;2022-08-25T00:15:32;100778.69;;;19.05;72.27
13690;BME280;6917;52.194;9.894;2022-08-25T00:17:58;100781.28;;;18.97;72.35
13690;BME280;6917;52.194;9.894;2022-08-25T00:20:25;100779.22;;;18.94;72.79
13690;BME280;6917;52.194;9.894;2022-08-25T00:22:51;100777.75;;;18.81;72.85
13690;BME280;6917;52.194;9.894;2022-08-25T00:25:17;100779.22;;;18.94;73.07
13690;BME280;6917;52.194;9.894;2022-08-25T00:27:43;100776.31;;;18.87;73.10
13690;BME280;6917;52.194;9.894;2022-08-25T00:30:10;100780.69;;;18.72;73.71
13690;BME280;6917;52.194;9.894;2022-08-25T00:32:36;100777.81;;;18.85;73.66
13690;BME280;6917;52.194;9.894;2022-08-25T00:35:02;100785.00;;;19.05;73.35
13690;BME280;6917;52.194;9.894;2022-08-25T00:37:28;100781.38;;;19.01;73.09
13690;BME280;6917;52.194;9.894;2022-08-25T00:39:53;100776.56;;;18.98;73.20
13690;BME280;6917;52.194;9.894;2022-08-25T00:42:21;100777.81;;;18.85;73.84
13690;BME280;6917;52.194;9.894;2022-08-25T00:44:47;100781.50;;;18.73;73.95
13690;BME280;6917;52.194;9.894;2022-08-25T00:47:12;100779.16;;;18.75;74.21
13690;BME280;6917;52.194;9.894;2022-08-25T00:49:44;100782.19;;;18.86;73.95
13690;BME280;6917;52.194;9.894;2022-08-25T00:52:17;100773.69;;;18.94;73.91
13690;BME280;6917;52.194;9.894;2022-08-25T00:55:06;100775.75;;;18.97;73.66
13690;BME280;6917;52.194;9.894;2022-08-25T00:57:36;100774.22;;;19.00;73.75
13690;BME280;6917;52.194;9.894;2022-08-25T01:00:10;100781.53;;;19.08;73.57
13690;BME280;6917;52.194;9.894;2022-08-25T01:02:37;100770.81;;;19.07;73.57
13690;BME280;6917;52.194;9.894;2022-08-25T01:05:03;100774.03;;;18.93;73.92
13690;BME280;6917;52.194;9.894;2022-08-25T01:07:28;100788.47;;;18.83;74.49
13690;BME280;6917;52.194;9.894;2022-08-25T01:09:53;100779.97;;;18.76;74.57
13690;BME280;6917;52.194;9.894;2022-08-25T01:12:20;100777.53;;;18.27;76.65
13690;BME280;6917;52.194;9.894;2022-08-25T01:14:47;100781.78;;;18.08;77.87
13690;BME280;6917;52.194;9.894;2022-08-25T01:17:13;100781.56;;;18.01;78.51
13690;BME280;6917;52.194;9.894;2022-08-25T01:19:39;100781.06;;;18.11;78.57
13690;BME280;6917;52.194;9.894;2022-08-25T01:22:04;100777.09;;;18.25;77.75
13690;BME280;6917;52.194;9.894;2022-08-25T01:24:36;100782.69;;;18.28;77.76
13690;BME280;6917;52.194;9.894;2022-08-25T01:27:03;100771.28;;;18.46;77.15
13690;BME280;6917;52.194;9.894;2022-08-25T01:29:29;100784.03;;;18.50;76.59
13690;BME280;6917;52.194;9.894;2022-08-25T01:31:58;100782.72;;;18.44;76.70
13690;BME280;6917;52.194;9.894;2022-08-25T01:34:26;100780.03;;;18.48;76.43
13690;BME280;6917;52.194;9.894;2022-08-25T01:36:52;100777.25;;;18.32;76.88
13690;BME280;6917;52.194;9.894;2022-08-25T01:39:18;100775.84;;;18.38;76.94
13690;BME280;6917;52.194;9.894;2022-08-25T01:44:39;100783.53;;;18.01;78.69
13690;BME280;6917;52.194;9.894;2022-08-25T01:47:06;100786.09;;;17.94;78.95
13690;BME280;6917;52.194;9.894;2022-08-25T01:49:32;100781.44;;;17.82;79.52
13690;BME280;6917;52.194;9.894;2022-08-25T01:54:38;100781.59;;;17.61;80.38
13690;BME280;6917;52.194;9.894;2022-08-25T01:57:04;100783.38;;;17.41;80.91
13690;BME280;6917;52.194;9.894;2022-08-25T01:59:29;100779.38;;;17.27;81.61
13690;BME280;6917;52.194;9.894;2022-08-25T02:01:54;100783.16;;;17.34;82.20
13690;BME280;6917;52.194;9.894;2022-08-25T02:04:20;100782.09;;;17.51;81.55
13690;BME280;6917;52.194;9.894;2022-08-25T02:06:46;100781.97;;;17.47;81.26
13690;BME280;6917;52.194;9.894;2022-08-25T02:09:14;100778.66;;;17.42;82.04
13690;BME280;6917;52.194;9.894;2022-08-25T02:11:44;100778.84;;;17.49;82.05
13690;BME280;6917;52.194;9.894;2022-08-25T02:14:13;100782.91;;;17.51;81.57
13690;BME280;6917;52.194;9.894;2022-08-25T02:16:43;100781.84;;;17.56;81.65
13690;BME280;6917;52.194;9.894;2022-08-25T02:19:09;100779.78;;;17.53;82.00
13690;BME280;6917;52.194;9.894;2022-08-25T02:21:36;100778.19;;;17.52;82.58
13690;BME280;6917;52.194;9.894;2022-08-25T02:24:03;100781.13;;;17.59;82.65
13690;BME280;6917;52.194;9.894;2022-08-25T02:26:28;100780.47;;;17.50;83.37
13690;BME280;6917;52.194;9.894;2022-08-25T02:28:54;100780.88;;;17.64;83.38
13690;BME280;6917;52.194;9.894;2022-08-25T02:31:22;100773.75;;;17.63;83.24
13690;BME280;6917;52.194;9.894;2022-08-25T02:33:49;100777.00;;;17.65;83.08
13690;BME280;6917;52.194;9.894;2022-08-25T02:36:15;100782.03;;;17.75;82.67
13690;BME280;6917;52.194;9.894;2022-08-25T02:38:40;100781.34;;;17.66;82.58
13690;BME280;6917;52.194;9.894;2022-08-25T02:41:15;100781.84;;;17.68;82.85
13690;BME280;6917;52.194;9.894;2022-08-25T02:43:42;100782.16;;;17.67;83.33
13690;BME280;6917;52.194;9.894;2022-08-25T02:46:09;100782.28;;;17.70;83.12
13690;BME280;6917;52.194;9.894;2022-08-25T02:48:36;100778.72;;;17.70;83.06
13690;BME280;6917;52.194;9.894;2022-08-25T02:51:02;100780.88;;;17.64;83.56
13690;BME280;6917;52.194;9.894;2022-08-25T02:53:28;100778.81;;;17.61;83.70
13690;BME280;6917;52.194;9.894;2022-08-25T02:55:54;100778.72;;;17.58;83.85
13690;BME280;6917;52.194;9.894;2022-08-25T02:58:20;100783.91;;;17.59;83.88
13690;BME280;6917;52.194;9.894;2022-08-25T03:00:47;100770.50;;;17.33;85.17
13690;BME280;6917;52.194;9.894;2022-08-25T03:03:12;100774.66;;;17.27;85.60
13690;BME280;6917;52.194;9.894;2022-08-25T03:05:38;100769.50;;;17.25;85.83
13690;BME280;6917;52.194;9.894;2022-08-25T03:08:05;100774.78;;;17.31;86.05
13690;BME280;6917;52.194;9.894;2022-08-25T03:10:31;100764.06;;;17.29;85.76
13690;BME280;6917;52.194;9.894;2022-08-25T03:12:56;100766.53;;;17.06;86.30
13690;BME280;6917;52.194;9.894;2022-08-25T03:15:22;100767.81;;;17.09;86.89
13690;BME280;6917;52.194;9.894;2022-08-25T03:17:50;100760.91;;;17.03;87.27
13690;BME280;6917;52.194;9.894;2022-08-25T03:20:16;100769.41;;;16.98;87.67
13690;BME280;6917;52.194;9.894;2022-08-25T03:22:42;100771.84;;;16.99;87.83
13690;BME280;6917;52.194;9.894;2022-08-25T03:25:08;100777.56;;;17.06;87.61
13690;BME280;6917;52.194;9.894;2022-08-25T03:27:52;100764.78;;;17.14;87.15
13690;BME280;6917;52.194;9.894;2022-08-25T03:30:18;100765.84;;;17.09;87.13
13690;BME280;6917;52.194;9.894;2022-08-25T03:32:44;100767.00;;;17.08;86.91
13690;BME280;6917;52.194;9.894;2022-08-25T03:35:09;100777.56;;;17.18;86.78
13690;BME280;6917;52.194;9.894;2022-08-25T03:37:36;100774.13;;;17.21;86.58
13690;BME280;6917;52.194;9.894;2022-08-25T03:40:03;100774.13;;;17.21;86.88
13690;BME280;6917;52.194;9.894;2022-08-25T03:42:29;100773.50;;;17.28;85.61
13690;BME280;6917;52.194;9.894;2022-08-25T03:44:54;100783.31;;;17.25;85.74
13690;BME280;6917;52.194;9.894;2022-08-25T03:47:20;100780.22;;;17.15;85.54
13690;BME280;6917;52.194;9.894;2022-08-25T03:49:45;100772.84;;;17.07;86.38
13690;BME280;6917;52.194;9.894;2022-08-25T03:52:11;100775.50;;;17.03;87.18
13690;BME280;6917;52.194;9.894;2022-08-25T03:54:36;100765.25;;;17.04;87.99
13690;BME280;6917;52.194;9.894;2022-08-25T03:57:02;100771.13;;;17.02;87.99
13690;BME280;6917;52.194;9.894;2022-08-25T03:59:28;100775.16;;;17.05;88.42
13690;BME280;6917;52.194;9.894;2022-08-25T04:01:53;100772.16;;;17.10;87.97
13690;BME280;6917;52.194;9.894;2022-08-25T04:04:19;100777.78;;;17.13;87.69
13690;BME280;6917;52.194;9.894;2022-08-25T04:06:45;100782.88;;;17.11;86.93
13690;BME280;6917;52.194;9.894;2022-08-25T04:09:11;100783.56;;;17.08;86.92
13690;BME280;6917;52.194;9.894;2022-08-25T04:11:36;100792.06;;;17.03;86.73
13690;BME280;6917;52.194;9.894;2022-08-25T04:14:03;100792.06;;;16.91;87.31
13690;BME280;6917;52.194;9.894;2022-08-25T04:16:30;100795.75;;;16.83;87.82
13690;BME280;6917;52.194;9.894;2022-08-25T04:18:58;100801.63;;;16.69;89.15
13690;BME280;6917;52.194;9.894;2022-08-25T04:21:25;100799.88;;;16.64;90.16
13690;BME280;6917;52.194;9.894;2022-08-25T04:23:51;100793.88;;;16.62;91.51
13690;BME280;6917;52.194;9.894;2022-08-25T04:26:19;100790.44;;;16.65;92.53
13690;BME280;6917;52.194;9.894;2022-08-25T04:28:46;100785.88;;;16.70;92.83
13690;BME280;6917;52.194;9.894;2022-08-25T04:31:12;100789.09;;;16.72;92.87
13690;BME280;6917;52.194;9.894;2022-08-25T04:33:41;100790.81;;;16.76;92.56
13690;BME280;6917;52.194;9.894;2022-08-25T04:36:08;100785.28;;;16.64;91.73
13690;BME280;6917;52.194;9.894;2022-08-25T04:38:36;100787.44;;;16.58;92.31
13690;BME280;6917;52.194;9.894;2022-08-25T04:41:03;100784.31;;;16.48;92.73
13690;BME280;6917;52.194;9.894;2022-08-25T04:43:30;100781.22;;;16.49;92.81
13690;BME280;6917;52.194;9.894;2022-08-25T04:45:56;100776.41;;;16.58;92.80
13690;BME280;6917;52.194;9.894;2022-08-25T04:48:21;100777.53;;;16.57;92.50
13690;BME280;6917;52.194;9.894;2022-08-25T04:50:47;100778.25;;;16.66;92.74
13690;BME280;6917;52.194;9.894;2022-08-25T04:53:13;100767.91;;;16.51;92.93
13690;BME280;6917;52.194;9.894;2022-08-25T04:55:43;100771.09;;;16.41;94.09
13690;BME280;6917;52.194;9.894;2022-08-25T04:58:09;100768.44;;;16.45;94.79
13690;BME280;6917;52.194;9.894;2022-08-25T05:00:35;100772.25;;;16.40;95.59
13690;BME280;6917;52.194;9.894;2022-08-25T05:03:01;100777.88;;;16.44;95.95
13690;BME280;6917;52.194;9.894;2022-08-25T05:05:27;100776.97;;;16.52;95.46
13690;BME280;6917;52.194;9.894;2022-08-25T05:07:52;100776.03;;;16.48;96.02
13690;BME280;6917;52.194;9.894;2022-08-25T05:10:18;100779.38;;;16.53;96.14
13690;BME280;6917;52.194;9.894;2022-08-25T05:12:44;100779.63;;;16.60;95.89
13690;BME280;6917;52.194;9.894;2022-08-25T05:15:10;100787.69;;;16.65;95.97
13690;BME280;6917;52.194;9.894;2022-08-25T05:17:53;100780.69;;;16.68;95.77
13690;BME280;6917;52.194;9.894;2022-08-25T05:20:19;100790.81;;;16.76;96.05
13690;BME280;6917;52.194;9.894;2022-08-25T05:22:44;100784.63;;;16.79;95.84
13690;BME280;6917;52.194;9.894;2022-08-25T05:25:11;100789.66;;;16.89;95.64
13690;BME280;6917;52.194;9.894;2022-08-25T05:27:36;100789.19;;;16.87;95.39
13690;BME280;6917;52.194;9.894;2022-08-25T05:30:02;100791.41;;;16.94;95.69
13690;BME280;6917;52.194;9.894;2022-08-25T05:32:27;100791.25;;;16.90;95.98
13690;BME280;6917;52.194;9.894;2022-08-25T05:34:53;100795.06;;;16.86;96.22
13690;BME280;6917;52.194;9.894;2022-08-25T05:37:18;100787.50;;;16.95;96.31
13690;BME280;6917;52.194;9.894;2022-08-25T05:39:43;100785.75;;;17.03;95.93
13690;BME280;6917;52.194;9.894;2022-08-25T05:42:09;100791.84;;;17.08;96.04
13690;BME280;6917;52.194;9.894;2022-08-25T05:44:34;100788.03;;;17.13;96.12
13690;BME280;6917;52.194;9.894;2022-08-25T05:46:59;100788.47;;;17.27;96.02
13690;BME280;6917;52.194;9.894;2022-08-25T05:49:25;100783.28;;;17.38;95.39
13690;BME280;6917;52.194;9.894;2022-08-25T05:51:50;100780.28;;;17.43;95.05
13690;BME280;6917;52.194;9.894;2022-08-25T05:54:16;100780.97;;;17.40;95.76
13690;BME280;6917;52.194;9.894;2022-08-25T05:56:41;100787.31;;;17.40;95.61
13690;BME280;6917;52.194;9.894;2022-08-25T05:59:06;100784.59;;;17.56;95.60
13690;BME280;6917;52.194;9.894;2022-08-25T06:01:32;100786.66;;;17.59;95.29
13690;BME280;6917;52.194;9.894;2022-08-25T06:04:15;100781.00;;;17.68;94.81
13690;BME280;6917;52.194;9.894;2022-08-25T06:06:42;100789.53;;;17.75;94.23
13690;BME280;6917;52.194;9.894;2022-08-25T06:09:08;100786.03;;;17.78;94.47
13690;BME280;6917;52.194;9.894;2022-08-25T06:11:36;100780.28;;;17.83;94.69
13690;BME280;6917;52.194;9.894;2022-08-25T06:14:02;100781.97;;;17.88;94.48
13690;BME280;6917;52.194;9.894;2022-08-25T06:16:28;100786.31;;;18.01;94.22
13690;BME280;6917;52.194;9.894;2022-08-25T06:18:54;100783.03;;;18.11;93.41
13690;BME280;6917;52.194;9.894;2022-08-25T06:21:19;100785.09;;;18.14;93.17
13690;BME280;6917;52.194;9.894;2022-08-25T06:23:45;100776.88;;;18.18;93.12
13690;BME280;6917;52.194;9.894;2022-08-25T06:26:11;100775.47;;;18.24;93.26
13690;BME280;6917;52.194;9.894;2022-08-25T06:28:36;100779.75;;;18.37;93.09
13690;BME280;6917;52.194;9.894;2022-08-25T06:31:02;100788.78;;;18.50;92.37
13690;BME280;6917;52.194;9.894;2022-08-25T06:33:28;100787.38;;;18.56;91.61
13690;BME280;6917;52.194;9.894;2022-08-25T06:35:54;100783.16;;;18.62;90.87
13690;BME280;6917;52.194;9.894;2022-08-25T06:38:20;100781.22;;;18.78;90.99
13690;BME280;6917;52.194;9.894;2022-08-25T06:40:47;100783.97;;;18.94;90.24
13690;BME280;6917;52.194;9.894;2022-08-25T06:43:12;100775.03;;;19.00;89.05
13690;BME280;6917;52.194;9.894;2022-08-25T06:45:38;100779.91;;;19.07;88.10
13690;BME280;6917;52.194;9.894;2022-08-25T06:48:03;100783.66;;;19.15;87.98
13690;BME280;6917;52.194;9.894;2022-08-25T06:50:29;100788.19;;;19.23;87.57
13690;BME280;6917;52.194;9.894;2022-08-25T06:52:54;100776.97;;;19.35;87.93
13690;BME280;6917;52.194;9.894;2022-08-25T06:55:20;100775.44;;;19.38;86.49
13690;BME280;6917;52.194;9.894;2022-08-25T06:57:45;100770.44;;;19.43;86.18
13690;BME280;6917;52.194;9.894;2022-08-25T07:00:11;100772.66;;;19.53;85.47
13690;BME280;6917;52.194;9.894;2022-08-25T07:02:36;100770.28;;;19.71;84.84
13690;BME280;6917;52.194;9.894;2022-08-25T07:05:03;100778.28;;;19.76;84.34
13690;BME280;6917;52.194;9.894;2022-08-25T07:07:29;100773.25;;;19.82;84.01
13690;BME280;6917;52.194;9.894;2022-08-25T07:09:54;100767.16;;;19.96;84.26
13690;BME280;6917;52.194;9.894;2022-08-25T07:12:20;100759.44;;;20.05;83.89
13690;BME280;6917;52.194;9.894;2022-08-25T07:14:45;100768.31;;;20.14;83.70
13690;BME280;6917;52.194;9.894;2022-08-25T07:17:11;100769.56;;;20.39;84.15
13690;BME280;6917;52.194;9.894;2022-08-25T07:19:37;100767.00;;;20.50;83.64
13690;BME280;6917;52.194;9.894;2022-08-25T07:22:02;100770.44;;;20.66;82.77
13690;BME280;6917;52.194;9.894;2022-08-25T07:24:28;100770.63;;;20.77;82.33
13690;BME280;6917;52.194;9.894;2022-08-25T07:26:53;100775.66;;;20.94;82.31
13690;BME280;6917;52.194;9.894;2022-08-25T07:29:21;100763.84;;;21.01;81.19
13690;BME280;6917;52.194;9.894;2022-08-25T07:31:47;100764.69;;;21.05;81.88
13690;BME280;6917;52.194;9.894;2022-08-25T07:34:13;100774.41;;;21.18;81.83
13690;BME280;6917;52.194;9.894;2022-08-25T07:36:57;100769.56;;;21.38;81.53
13690;BME280;6917;52.194;9.894;2022-08-25T07:39:23;100772.91;;;21.51;81.14
13690;BME280;6917;52.194;9.894;2022-08-25T07:41:50;100763.72;;;21.47;80.97
13690;BME280;6917;52.194;9.894;2022-08-25T07:44:15;100775.88;;;21.65;81.93
13690;BME280;6917;52.194;9.894;2022-08-25T07:46:40;100776.53;;;21.85;80.37
13690;BME280;6917;52.194;9.894;2022-08-25T07:49:06;100784.97;;;21.95;80.30
13690;BME280;6917;52.194;9.894;2022-08-25T07:51:32;100787.56;;;22.11;80.18
13690;BME280;6917;52.194;9.894;2022-08-25T07:53:57;100792.41;;;22.18;79.76
13690;BME280;6917;52.194;9.894;2022-08-25T07:56:22;100790.47;;;22.22;80.18
13690;BME280;6917;52.194;9.894;2022-08-25T07:58:48;100782.69;;;22.42;80.12
13690;BME280;6917;52.194;9.894;2022-08-25T08:01:15;100783.16;;;22.47;79.17
13690;BME280;6917;52.194;9.894;2022-08-25T08:03:41;100786.78;;;22.55;78.55
13690;BME280;6917;52.194;9.894;2022-08-25T08:06:08;100780.50;;;22.62;78.96
13690;BME280;6917;52.194;9.894;2022-08-25T08:08:36;100782.63;;;22.79;78.82
13690;BME280;6917;52.194;9.894;2022-08-25T08:11:02;100789.03;;;22.83;78.25
13690;BME280;6917;52.194;9.894;2022-08-25T08:13:27;100780.38;;;22.95;78.70
13690;BME280;6917;52.194;9.894;2022-08-25T08:15:53;100777.25;;;23.04;78.62
13690;BME280;6917;52.194;9.894;2022-08-25T08:18:18;100776.97;;;23.23;78.63
13690;BME280;6917;52.194;9.894;2022-08-25T08:20:47;100776.59;;;23.25;77.84
13690;BME280;6917;52.194;9.894;2022-08-25T08:23:13;100781.03;;;23.33;78.25
13690;BME280;6917;52.194;9.894;2022-08-25T08:25:38;100768.69;;;23.34;78.33
13690;BME280;6917;52.194;9.894;2022-08-25T08:28:04;100774.78;;;23.57;77.94
13690;BME280;6917;52.194;9.894;2022-08-25T08:30:29;100777.13;;;23.55;76.99
13690;BME280;6917;52.194;9.894;2022-08-25T08:32:55;100768.03;;;23.58;77.39
13690;BME280;6917;52.194;9.894;2022-08-25T08:35:20;100768.09;;;23.72;76.57
13690;BME280;6917;52.194;9.894;2022-08-25T08:37:46;100767.34;;;23.93;76.20
13690;BME280;6917;52.194;9.894;2022-08-25T08:40:13;100763.38;;;23.94;76.26
13690;BME280;6917;52.194;9.894;2022-08-25T08:45:26;100761.81;;;24.04;75.70
13690;BME280;6917;52.194;9.894;2022-08-25T08:50:53;100749.88;;;24.21;76.15
13690;BME280;6917;52.194;9.894;2022-08-25T08:53:26;100746.28;;;24.28;75.50
13690;BME280;6917;52.194;9.894;2022-08-25T08:55:57;100745.50;;;24.42;75.16
13690;BME280;6917;52.194;9.894;2022-08-25T08:58:34;100745.13;;;24.40;74.37
13690;BME280;6917;52.194;9.894;2022-08-25T09:01:04;100742.34;;;24.54;74.89
13690;BME280;6917;52.194;9.894;2022-08-25T09:03:51;100732.34;;;24.63;73.57
13690;BME280;6917;52.194;9.894;2022-08-25T09:06:27;100736.75;;;24.61;73.80
13690;BME280;6917;52.194;9.894;2022-08-25T09:08:57;100725.94;;;24.81;73.51
13690;BME280;6917;52.194;9.894;2022-08-25T09:11:45;100722.72;;;24.93;73.18
13690;BME280;6917;52.194;9.894;2022-08-25T09:20:10;100711.94;;;25.06;71.93
13690;BME280;6917;52.194;9.894;2022-08-25T09:33:22;100721.38;;;25.51;69.21
13690;BME280;6917;52.194;9.894;2022-08-25T09:35:50;100713.38;;;25.53;68.03
13690;BME280;6917;52.194;9.894;2022-08-25T09:38:16;100721.00;;;25.42;67.92
13690;BME280;6917;52.194;9.894;2022-08-25T09:40:45;100714.22;;;25.39;67.96
13690;BME280;6917;52.194;9.894;2022-08-25T09:45:54;100701.34;;;25.56;67.13
13690;BME280;6917;52.194;9.894;2022-08-25T09:50:56;100700.41;;;25.91;67.09
13690;BME280;6917;52.194;9.894;2022-08-25T09:53:22;100695.63;;;25.85;66.75
13690;BME280;6917;52.194;9.894;2022-08-25T09:55:58;100686.09;;;25.68;66.30
13690;BME280;6917;52.194;9.894;2022-08-25T09:58:24;100685.31;;;25.71;66.53
13690;BME280;6917;52.194;9.894;2022-08-25T10:06:17;100682.13;;;25.65;67.26
13690;BME280;6917;52.194;9.894;2022-08-25T10:11:12;100675.63;;;25.90;66.15
13690;BME280;6917;52.194;9.894;2022-08-25T10:18:44;100667.72;;;26.26;65.58
13690;BME280;6917;52.194;9.894;2022-08-25T10:21:14;100659.94;;;25.99;65.60
13690;BME280;6917;52.194;9.894;2022-08-25T10:26:18;100655.97;;;25.93;65.73
13690;BME280;6917;52.194;9.894;2022-08-25T10:29:10;100647.53;;;26.00;66.05
13690;BME280;6917;52.194;9.894;2022-08-25T10:34:28;100638.88;;;26.29;64.91
13690;BME280;6917;52.194;9.894;2022-08-25T10:37:16;100637.13;;;26.49;64.14
13690;BME280;6917;52.194;9.894;2022-08-25T10:43:01;100626.94;;;26.21;63.81
13690;BME280;6917;52.194;9.894;2022-08-25T10:45:37;100618.25;;;26.53;62.63
13690;BME280;6917;52.194;9.894;2022-08-25T10:48:33;100610.44;;;26.72;62.55
13690;BME280;6917;52.194;9.894;2022-08-25T10:51:13;100610.75;;;27.15;62.17
13690;BME280;6917;52.194;9.894;2022-08-25T10:56:42;100602.66;;;27.51;60.28
13690;BME280;6917;52.194;9.894;2022-08-25T10:59:19;100597.78;;;27.55;59.81
13690;BME280;6917;52.194;9.894;2022-08-25T11:04:28;100594.91;;;27.58;60.19
13690;BME280;6917;52.194;9.894;2022-08-25T11:09:29;100580.13;;;27.54;60.53
13690;BME280;6917;52.194;9.894;2022-08-25T11:11:59;100567.19;;;27.34;60.03
13690;BME280;6917;52.194;9.894;2022-08-25T11:14:32;100576.34;;;27.11;61.51
13690;BME280;6917;52.194;9.894;2022-08-25T11:17:05;100565.78;;;26.88;61.60
13690;BME280;6917;52.194;9.894;2022-08-25T11:19:38;100561.50;;;26.80;62.43
13690;BME280;6917;52.194;9.894;2022-08-25T11:27:48;100557.44;;;26.84;61.80
13690;BME280;6917;52.194;9.894;2022-08-25T11:30:13;100548.53;;;26.93;60.71
13690;BME280;6917;52.194;9.894;2022-08-25T11:32:43;100550.47;;;26.96;60.91
13690;BME280;6917;52.194;9.894;2022-08-25T11:35:12;100543.78;;;27.17;61.15
13690;BME280;6917;52.194;9.894;2022-08-25T11:51:49;100532.94;;;26.88;60.98
13690;BME280;6917;52.194;9.894;2022-08-25T11:54:34;100530.84;;;26.96;58.84
13690;BME280;6917;52.194;9.894;2022-08-25T11:57:09;100527.88;;;27.10;58.79
13690;BME280;6917;52.194;9.894;2022-08-25T12:13:36;100502.50;;;26.87;59.32
13690;BME280;6917;52.194;9.894;2022-08-25T12:16:02;100503.00;;;27.12;58.52
13690;BME280;6917;52.194;9.894;2022-08-25T12:23:31;100490.06;;;26.91;59.09
13690;BME280;6917;52.194;9.894;2022-08-25T12:29:23;100493.16;;;26.97;58.91
13690;BME280;6917;52.194;9.894;2022-08-25T12:37:23;100478.59;;;27.36;57.63
13690;BME280;6917;52.194;9.894;2022-08-25T12:42:38;100488.69;;;27.80;56.98
13690;BME280;6917;52.194;9.894;2022-08-25T12:47:48;100469.09;;;27.26;58.08
13690;BME280;6917;52.194;9.894;2022-08-25T12:51:03;100470.84;;;27.44;58.19
13690;BME280;6917;52.194;9.894;2022-08-25T12:53:42;100468.59;;;27.35;57.24
13690;BME280;6917;52.194;9.894;2022-08-25T12:56:33;100482.06;;;27.17;57.96
13690;BME280;6917;52.194;9.894;2022-08-25T13:10:07;100458.38;;;27.21;56.71
13690;BME280;6917;52.194;9.894;2022-08-25T13:13:05;100452.78;;;27.21;56.65
13690;BME280;6917;52.194;9.894;2022-08-25T13:15:44;100453.59;;;27.18;56.56
13690;BME280;6917;52.194;9.894;2022-08-25T13:18:22;100444.44;;;27.14;57.43
13690;BME280;6917;52.194;9.894;2022-08-25T13:20:51;100441.47;;;27.48;57.22
13690;BME280;6917;52.194;9.894;2022-08-25T13:23:26;100438.34;;;27.90;56.52
13690;BME280;6917;52.194;9.894;2022-08-25T13:25:52;100433.31;;;27.81;55.91
13690;BME280;6917;52.194;9.894;2022-08-25T13:28:23;100438.25;;;27.97;55.54
13690;BME280;6917;52.194;9.894;2022-08-25T13:31:06;100439.53;;;28.12;54.03
13690;BME280;6917;52.194;9.894;2022-08-25T13:33:33;100427.13;;;27.90;54.82
13690;BME280;6917;52.194;9.894;2022-08-25T13:36:03;100425.97;;;27.67;55.70
13690;BME280;6917;52.194;9.894;2022-08-25T13:38:48;100428.13;;;27.56;56.18
13690;BME280;6917;52.194;9.894;2022-08-25T13:41:22;100419.28;;;27.57;56.13
13690;BME280;6917;52.194;9.894;2022-08-25T13:43:49;100420.78;;;27.66;55.75
13690;BME280;6917;52.194;9.894;2022-08-25T13:46:21;100413.72;;;27.77;54.68
13690;BME280;6917;52.194;9.894;2022-08-25T13:48:46;100423.16;;;27.87;54.53
13690;BME280;6917;52.194;9.894;2022-08-25T13:51:19;100415.09;;;27.69;55.48
13690;BME280;6917;52.194;9.894;2022-08-25T13:53:54;100418.41;;;27.64;56.32
13690;BME280;6917;52.194;9.894;2022-08-25T13:56:35;100412.56;;;27.75;55.83
13690;BME280;6917;52.194;9.894;2022-08-25T13:59:03;100418.56;;;27.53;56.05
13690;BME280;6917;52.194;9.894;2022-08-25T14:01:31;100409.88;;;27.44;56.40
13690;BME280;6917;52.194;9.894;2022-08-25T14:12:38;100391.78;;;27.49;55.64
13690;BME280;6917;52.194;9.894;2022-08-25T14:17:30;100386.84;;;27.76;55.01
13690;BME280;6917;52.194;9.894;2022-08-25T14:19:56;100382.81;;;27.77;55.49
13690;BME280;6917;52.194;9.894;2022-08-25T14:22:22;100386.13;;;27.72;55.00
13690;BME280;6917;52.194;9.894;2022-08-25T14:24:50;100392.34;;;27.60;55.59
13690;BME280;6917;52.194;9.894;2022-08-25T14:27:16;100380.41;;;27.56;55.84
13690;BME280;6917;52.194;9.894;2022-08-25T14:29:43;100379.97;;;27.57;56.12
13690;BME280;6917;52.194;9.894;2022-08-25T14:32:08;100376.91;;;27.48;56.03
13690;BME280;6917;52.194;9.894;2022-08-25T14:34:35;100381.88;;;27.41;55.88
13690;BME280;6917;52.194;9.894;2022-08-25T14:37:06;100379.44;;;27.43;56.54
13690;BME280;6917;52.194;9.894;2022-08-25T14:39:35;100375.56;;;27.37;55.94
13690;BME280;6917;52.194;9.894;2022-08-25T14:42:01;100369.94;;;27.37;56.42
13690;BME280;6917;52.194;9.894;2022-08-25T14:44:26;100367.00;;;27.44;55.96
13690;BME280;6917;52.194;9.894;2022-08-25T14:46:54;100357.50;;;27.57;55.93
13690;BME280;6917;52.194;9.894;2022-08-25T14:49:24;100356.78;;;27.53;55.69
13690;BME280;6917;52.194;9.894;2022-08-25T14:51:54;100364.78;;;27.55;55.57
13690;BME280;6917;52.194;9.894;2022-08-25T14:54:23;100363.81;;;27.42;55.44
13690;BME280;6917;52.194;9.894;2022-08-25T14:56:49;100363.22;;;27.31;55.57
13690;BME280;6917;52.194;9.894;2022-08-25T14:59:15;100355.66;;;27.27;55.67
13690;BME280;6917;52.194;9.894;2022-08-25T15:01:40;100349.19;;;27.31;55.95
13690;BME280;6917;52.194;9.894;2022-08-25T15:04:11;100345.94;;;27.32;55.76
13690;BME280;6917;52.194;9.894;2022-08-25T15:06:39;100343.22;;;27.28;55.42
13690;BME280;6917;52.194;9.894;2022-08-25T15:09:08;100351.13;;;27.34;55.48
13690;BME280;6917;52.194;9.894;2022-08-25T15:11:43;100350.72;;;27.35;55.35
13690;BME280;6917;52.194;9.894;2022-08-25T15:14:10;100348.63;;;27.39;55.21
13690;BME280;6917;52.194;9.894;2022-08-25T15:16:40;100334.53;;;27.43;55.41
13690;BME280;6917;52.194;9.894;2022-08-25T15:19:12;100326.91;;;27.43;55.16
13690;BME280;6917;52.194;9.894;2022-08-25T15:21:41;100342.84;;;27.50;55.32
13690;BME280;6917;52.194;9.894;2022-08-25T15:24:08;100331.09;;;27.55;54.45